Aérodrome :
LOGIN :

S'inscrire | Disclaimer

   EN    FR    IT 

 










Légende :    VFR   VFR Marginal   IFR   IFR Intensif   IFR Très Intensif
Visi : 
Plafond : 
>= 8 km
>= 3000ft
5 à 8 km
1000 à 3000 ft
1500m à 5 km
500 à 1000 ft
800 à 1500m
200 à 500 ft
< 800m
< 200 ft
Symboles :   Orages  Brouillard  Fortes neiges  Fortes précipitations  Vent > 20 kt
SIGMETs :   Divers  Orages  Givrage  Turbulence  Onde Orograph.  Cendres Volcan.






- Altitude de l'aérodrome : 503 ft
- Code IATA : BLE


ESSD - Borlange

DERNIER METAR :
  • 260120Z AUTO 26004KT 9999 BKN100/// 07/05 Q1006

METARs EXPIRÉS :
  • 260050Z AUTO 28004KT 9999 BKN100/// BKN140/// 07/06 Q1006
  • 260020Z AUTO 27005KT 9999 BKN098/// OVC120/// 07/06 Q1006
  • 252350Z AUTO 25003KT 9999 OVC084/// 08/06 Q1006
  • 252320Z AUTO VRB02KT 9999 FEW018/// BKN090/// OVC130/// 08/06 Q1006
  • 252250Z AUTO 24007KT 9999 BKN061/// BKN090/// OVC140/// 08/06 Q1005

Prévision TAF périmée.



MET'MAP, la Météo Aéronautique d'un coup d'oeil ! - Copyright ORBIFLY Décembre 2007 - Disclaimer

ORBIFLY MET'MAP TEAM :

Programmation & Développement : Alexandra Zaïnal
Sur une idée originale de : Baudouin d'Aumeries
Assistance à la programmation : Marc-Olivier Méhu
Soutien technique & logistique : Manuel Goepfert

Contact : metmap@orbifly.com




SOURCES & CREDITS :

   NOAA